createdAt,value
2018-04-24T00:01:34.434Z,16.10
2018-04-24T00:04:02.290Z,16.10
2018-04-24T00:06:29.806Z,16.10
2018-04-24T00:08:57.320Z,16.10
2018-04-24T00:11:24.765Z,16.10
2018-04-24T00:13:52.220Z,16.10
2018-04-24T00:16:19.693Z,16.00
2018-04-24T00:18:47.529Z,16.00
2018-04-24T00:21:14.997Z,16.00
2018-04-24T00:23:42.473Z,15.90
2018-04-24T00:26:10.031Z,15.90
2018-04-24T00:28:37.501Z,15.80
2018-04-24T00:31:05.008Z,15.80
2018-04-24T00:33:32.956Z,15.70
2018-04-24T00:36:00.415Z,15.70
2018-04-24T00:38:27.876Z,15.70
2018-04-24T00:40:55.344Z,15.70
2018-04-24T00:43:22.858Z,15.60
2018-04-24T00:45:50.322Z,15.60
2018-04-24T00:48:17.777Z,15.50
2018-04-24T00:50:45.236Z,15.50
2018-04-24T00:53:24.713Z,15.50
2018-04-24T00:55:52.495Z,15.50
2018-04-24T00:58:19.957Z,15.50
2018-04-24T01:00:47.410Z,15.40
2018-04-24T01:03:14.864Z,15.40
2018-04-24T01:05:42.394Z,15.40
2018-04-24T01:08:09.847Z,15.30
2018-04-24T01:10:37.357Z,15.30
2018-04-24T01:13:04.917Z,15.30
2018-04-24T01:15:32.373Z,15.20
2018-04-24T01:17:59.849Z,15.20
2018-04-24T01:20:27.299Z,15.10
2018-04-24T01:22:54.789Z,15.10
2018-04-24T01:25:22.351Z,15.10
2018-04-24T01:27:49.824Z,15.00
2018-04-24T01:30:17.676Z,15.00
2018-04-24T01:32:45.459Z,15.00
2018-04-24T01:35:12.921Z,15.00
2018-04-24T01:37:40.468Z,15.00
2018-04-24T01:40:07.913Z,15.00
2018-04-24T01:42:35.499Z,14.90
2018-04-24T01:45:02.969Z,14.90
2018-04-24T01:47:30.525Z,14.90
2018-04-24T01:49:57.981Z,14.80
2018-04-24T01:52:25.426Z,14.80
2018-04-24T01:54:52.927Z,14.80
2018-04-24T01:57:20.385Z,14.70
2018-04-24T01:59:47.846Z,14.70
2018-04-24T02:02:15.389Z,14.70
2018-04-24T02:04:42.836Z,14.80
2018-04-24T02:07:10.344Z,14.80
2018-04-24T02:09:38.209Z,14.80
2018-04-24T02:12:05.762Z,14.80
2018-04-24T02:14:33.221Z,14.80
2018-04-24T02:17:00.677Z,14.80
2018-04-24T02:25:08.024Z,14.70
2018-04-24T02:27:35.964Z,14.60
2018-04-24T02:30:03.437Z,14.60
2018-04-24T02:48:11.290Z,14.80
2018-04-24T02:50:38.783Z,14.80
2018-04-24T02:53:06.361Z,14.70
2018-04-24T02:55:33.799Z,14.60
2018-04-24T03:00:36.223Z,14.40
2018-04-24T03:03:03.700Z,14.50
2018-04-24T03:05:31.563Z,14.40
2018-04-24T03:07:59.114Z,14.40
2018-04-24T03:10:26.581Z,14.40
2018-04-24T03:12:54.086Z,14.30
2018-04-24T03:15:21.559Z,14.30
2018-04-24T03:17:49.577Z,14.30
2018-04-24T03:20:17.132Z,14.30
2018-04-24T03:22:44.585Z,14.20
2018-04-24T03:25:12.052Z,14.20
2018-04-24T03:27:39.614Z,14.20
2018-04-24T03:30:07.067Z,14.10
2018-04-24T03:32:34.523Z,14.10
2018-04-24T03:35:01.969Z,14.10
2018-04-24T03:37:29.480Z,14.00
2018-04-24T03:39:57.417Z,14.00
2018-04-24T03:42:25.611Z,14.00
2018-04-24T03:44:53.077Z,14.00
2018-04-24T03:47:20.554Z,14.00
2018-04-24T03:49:48.030Z,14.00
2018-04-24T03:52:15.878Z,14.00
2018-04-24T03:54:43.339Z,14.00
2018-04-24T03:57:10.944Z,13.90
2018-04-24T03:59:38.374Z,14.00
2018-04-24T04:02:05.886Z,13.90
2018-04-24T04:04:33.352Z,13.90
2018-04-24T04:07:00.796Z,13.90
2018-04-24T04:09:28.251Z,13.90
2018-04-24T04:11:56.116Z,13.80
2018-04-24T04:14:23.670Z,13.80
2018-04-24T04:16:51.138Z,13.80
2018-04-24T04:32:50.942Z,13.60
2018-04-24T04:35:18.866Z,13.60
2018-04-24T04:37:46.321Z,13.60
2018-04-24T04:40:14.599Z,13.60
2018-04-24T04:42:42.060Z,13.60
2018-04-24T04:45:09.572Z,13.70
2018-04-24T04:47:37.420Z,13.70
2018-04-24T04:50:04.880Z,13.70
2018-04-24T04:52:32.333Z,13.80
2018-04-24T04:54:59.790Z,13.80
2018-04-24T04:57:27.292Z,13.80
2018-04-24T04:59:55.159Z,13.90
2018-04-24T05:02:22.680Z,13.90
2018-04-24T05:04:50.132Z,13.90
2018-04-24T05:07:17.598Z,13.90
2018-04-24T05:09:45.117Z,13.90
2018-04-24T05:12:13.046Z,14.00
2018-04-24T05:14:40.506Z,14.00
2018-04-24T05:17:07.978Z,14.00
2018-04-24T05:19:35.424Z,14.00
2018-04-24T05:22:02.932Z,14.00
2018-04-24T05:24:30.854Z,14.10
2018-04-24T05:26:58.299Z,14.10
2018-04-24T05:29:25.752Z,14.00
2018-04-24T05:31:53.212Z,14.00
2018-04-24T05:34:20.730Z,14.00
2018-04-24T05:36:48.320Z,14.00
2018-04-24T05:39:16.264Z,14.00
2018-04-24T05:41:43.722Z,14.00
2018-04-24T05:44:11.181Z,14.00
2018-04-24T05:46:38.750Z,14.10
2018-04-24T05:49:06.214Z,14.10
2018-04-24T05:51:33.669Z,14.20
2018-04-24T05:54:01.130Z,14.30
2018-04-24T05:56:28.594Z,14.40
2018-04-24T05:58:56.096Z,14.40
2018-04-24T06:01:23.941Z,14.60
2018-04-24T06:03:51.394Z,14.50
2018-04-24T06:06:18.849Z,14.60
2018-04-24T06:08:46.305Z,14.70
2018-04-24T06:11:13.825Z,14.70
2018-04-24T06:13:41.291Z,14.80
2018-04-24T06:16:08.764Z,14.90
2018-04-24T06:18:36.229Z,15.00
2018-04-24T06:21:03.688Z,15.10
2018-04-24T06:23:32.373Z,15.10
2018-04-24T06:25:59.826Z,15.20
2018-04-24T06:28:27.328Z,15.20
2018-04-24T06:30:55.138Z,15.20
2018-04-24T06:33:22.989Z,15.30
2018-04-24T06:35:50.498Z,15.30
2018-04-24T06:38:18.006Z,15.30
2018-04-24T06:40:45.465Z,15.40
2018-04-24T06:43:13.036Z,15.40
2018-04-24T06:45:40.498Z,15.50
2018-04-24T06:48:07.966Z,15.50
2018-04-24T06:50:35.705Z,15.50
2018-04-24T06:53:03.180Z,15.60
2018-04-24T06:55:30.628Z,15.60
2018-04-24T06:57:58.094Z,15.60
2018-04-24T07:00:25.594Z,15.70
2018-04-24T07:02:53.067Z,15.70
2018-04-24T07:05:20.918Z,15.80
2018-04-24T07:07:48.386Z,15.80
2018-04-24T07:10:15.944Z,15.80
2018-04-24T07:12:43.427Z,15.80
2018-04-24T07:15:11.285Z,15.90
2018-04-24T07:17:39.136Z,15.80
2018-04-24T07:20:06.604Z,15.80
2018-04-24T07:22:34.056Z,15.90
2018-04-24T07:25:01.529Z,15.90
2018-04-24T07:27:28.984Z,15.90
2018-04-24T07:29:56.561Z,16.00
2018-04-24T07:32:24.233Z,16.10
2018-04-24T07:34:51.693Z,16.10
2018-04-24T07:37:19.196Z,16.10
2018-04-24T07:39:46.655Z,16.10
2018-04-24T07:42:14.165Z,16.20
2018-04-24T07:44:41.630Z,16.20
2018-04-24T07:47:09.751Z,16.30
2018-04-24T07:49:37.344Z,16.30
2018-04-24T07:52:04.804Z,16.40
2018-04-24T07:54:32.258Z,16.40
2018-04-24T07:57:00.101Z,16.40
2018-04-24T07:59:27.582Z,16.50
2018-04-24T08:01:55.104Z,16.50
2018-04-24T08:04:22.576Z,16.50
2018-04-24T08:06:50.537Z,16.70
2018-04-24T08:09:18.105Z,16.70
2018-04-24T08:11:45.553Z,16.80
2018-04-24T08:14:13.148Z,16.80
2018-04-24T08:16:41.257Z,16.90
2018-04-24T08:19:08.723Z,16.90
2018-04-24T08:21:36.222Z,16.90
2018-04-24T08:24:03.688Z,16.90
2018-04-24T08:26:31.152Z,16.90
2018-04-24T08:28:58.616Z,17.00
2018-04-24T08:31:26.072Z,17.00
2018-04-24T08:33:53.629Z,17.10
2018-04-24T08:36:21.190Z,17.00
2018-04-24T08:38:48.750Z,17.00
2018-04-24T08:41:16.202Z,17.10
2018-04-24T08:43:43.880Z,17.10
2018-04-24T08:46:11.353Z,17.20
2018-04-24T08:48:38.819Z,17.30
2018-04-24T08:51:06.325Z,17.30
2018-04-24T08:53:33.795Z,17.40
2018-04-24T08:56:01.315Z,17.40
2018-04-24T08:58:29.082Z,17.50
2018-04-24T09:00:56.631Z,17.50
2018-04-24T09:03:24.155Z,17.60
2018-04-24T09:05:51.603Z,17.60
2018-04-24T09:08:19.054Z,17.70
2018-04-24T09:10:46.911Z,17.80
2018-04-24T09:13:14.374Z,17.80
2018-04-24T09:15:41.888Z,17.90
2018-04-24T09:18:09.344Z,17.90
2018-04-24T09:20:36.940Z,17.90
2018-04-24T09:23:04.401Z,18.00
2018-04-24T09:25:31.845Z,18.00
2018-04-24T09:27:59.536Z,18.10
2018-04-24T09:30:27.007Z,18.10
2018-04-24T09:32:54.464Z,18.20
2018-04-24T09:35:27.843Z,18.30
2018-04-24T09:37:55.298Z,18.50
2018-04-24T09:40:22.952Z,18.60
2018-04-24T09:42:50.405Z,18.80
2018-04-24T09:45:17.874Z,18.90
2018-04-24T09:47:45.403Z,19.00
2018-04-24T09:50:13.255Z,19.10
2018-04-24T09:52:40.765Z,19.10
2018-04-24T09:55:08.229Z,19.30
2018-04-24T09:57:35.730Z,19.50
2018-04-24T10:00:03.190Z,19.70
2018-04-24T10:02:30.657Z,19.90
2018-04-24T10:04:58.210Z,20.00
2018-04-24T10:07:25.668Z,20.00
2018-04-24T10:09:53.115Z,20.10
2018-04-24T10:12:20.611Z,20.10
2018-04-24T10:14:48.073Z,20.00
2018-04-24T10:17:15.837Z,20.00
2018-04-24T10:19:43.343Z,20.10
2018-04-24T10:22:10.973Z,20.00
2018-04-24T10:24:38.430Z,20.00
2018-04-24T10:27:05.878Z,20.00
2018-04-24T10:29:33.395Z,20.00
2018-04-24T10:32:01.344Z,19.80
2018-04-24T10:34:29.200Z,19.80
2018-04-24T10:36:56.759Z,19.80
2018-04-24T10:39:24.657Z,19.80
2018-04-24T10:41:52.564Z,19.90
2018-04-24T10:44:20.031Z,19.90
2018-04-24T10:46:47.486Z,19.80
2018-04-24T10:49:14.940Z,19.70
2018-04-24T10:51:42.403Z,19.70
2018-04-24T10:54:09.899Z,19.80
2018-04-24T10:56:37.348Z,19.90
2018-04-24T10:59:04.815Z,19.90
2018-04-24T11:01:32.271Z,20.00
2018-04-24T11:03:59.724Z,19.90
2018-04-24T11:06:27.247Z,19.90
2018-04-24T11:08:54.803Z,19.90
2018-04-24T11:11:22.272Z,19.90
2018-04-24T11:13:49.737Z,19.90
2018-04-24T11:16:17.680Z,19.90
2018-04-24T11:18:45.192Z,19.90
2018-04-24T11:21:13.054Z,20.00
2018-04-24T11:23:40.593Z,20.00
2018-04-24T11:26:08.040Z,20.00
2018-04-24T11:28:35.522Z,20.00
2018-04-24T11:31:03.362Z,20.00
2018-04-24T11:33:30.812Z,20.10
2018-04-24T11:35:58.369Z,20.10
2018-04-24T11:38:25.729Z,20.20
2018-04-24T11:40:53.179Z,20.20
2018-04-24T11:43:20.694Z,20.30
2018-04-24T11:45:48.151Z,20.40
2018-04-24T11:48:15.639Z,20.40
2018-04-24T11:50:43.528Z,20.50
2018-04-24T11:53:11.388Z,20.50
2018-04-24T11:55:39.293Z,20.50
2018-04-24T11:58:06.740Z,20.50
2018-04-24T12:00:34.195Z,20.50
2018-04-24T12:03:02.060Z,20.60
2018-04-24T12:05:29.905Z,20.70
2018-04-24T12:07:57.415Z,20.70
2018-04-24T12:10:24.877Z,20.60
2018-04-24T12:12:52.327Z,20.70
2018-04-24T12:15:19.919Z,20.70
2018-04-24T12:17:47.726Z,20.70
2018-04-24T12:20:15.240Z,20.80
2018-04-24T12:22:42.715Z,20.80
2018-04-24T12:25:10.167Z,20.90
2018-04-24T12:27:37.620Z,20.90
2018-04-24T12:30:05.094Z,21.00
2018-04-24T12:32:32.608Z,21.10
2018-04-24T12:35:00.057Z,21.10
2018-04-24T12:37:27.513Z,21.20
2018-04-24T12:39:54.975Z,21.30
2018-04-24T12:42:22.431Z,21.30
2018-04-24T12:44:49.903Z,21.30
2018-04-24T12:47:17.352Z,21.30
2018-04-24T12:49:44.829Z,21.40
2018-04-24T12:52:12.383Z,21.50
2018-04-24T12:54:40.292Z,21.60
2018-04-24T12:57:08.186Z,21.70
2018-04-24T12:59:35.656Z,21.70
2018-04-24T13:02:03.168Z,21.70
2018-04-24T13:04:30.608Z,21.80
2018-04-24T13:06:58.063Z,21.90
2018-04-24T13:09:25.535Z,21.90
2018-04-24T13:11:53.112Z,21.90
2018-04-24T13:14:20.572Z,21.90
2018-04-24T13:16:48.024Z,21.90
2018-04-24T13:19:15.499Z,21.90
2018-04-24T13:21:43.021Z,21.90
2018-04-24T13:24:10.480Z,21.90
2018-04-24T13:26:37.924Z,21.90
2018-04-24T13:29:05.771Z,21.90
2018-04-24T13:31:33.225Z,21.90
2018-04-24T13:34:00.688Z,22.00
2018-04-24T13:36:28.142Z,22.00
2018-04-24T13:38:55.617Z,22.10
2018-04-24T13:41:23.075Z,22.10
2018-04-24T13:43:50.563Z,22.10
2018-04-24T13:46:18.485Z,22.00
2018-04-24T13:48:45.979Z,22.10
2018-04-24T13:51:13.437Z,22.10
2018-04-24T13:53:40.902Z,22.20
2018-04-24T13:56:08.347Z,22.20
2018-04-24T13:58:35.867Z,22.30
2018-04-24T14:01:03.337Z,22.30
2018-04-24T14:03:30.832Z,22.40
2018-04-24T14:05:58.296Z,22.40
2018-04-24T14:08:25.743Z,22.40
2018-04-24T14:10:53.248Z,22.50
2018-04-24T14:13:21.427Z,22.60
2018-04-24T14:15:49.289Z,22.70
2018-04-24T14:18:16.760Z,22.70
2018-04-24T14:20:44.721Z,22.70
2018-04-24T14:23:12.226Z,22.70
2018-04-24T14:25:39.669Z,22.90
2018-04-24T14:28:07.567Z,23.00
2018-04-24T14:30:35.013Z,23.00
2018-04-24T14:33:02.549Z,23.00
2018-04-24T14:35:30.073Z,23.10
2018-04-24T14:37:57.524Z,23.10
2018-04-24T14:40:24.999Z,23.10
2018-04-24T14:42:52.512Z,23.20
2018-04-24T14:45:20.462Z,23.30
2018-04-24T14:47:47.976Z,23.30
2018-04-24T14:50:15.480Z,23.30
2018-04-24T14:52:43.056Z,23.30
2018-04-24T14:55:10.500Z,23.20
2018-04-24T14:57:37.962Z,23.20
2018-04-24T15:00:05.524Z,23.20
2018-04-24T15:02:32.971Z,23.20
2018-04-24T15:05:00.427Z,23.10
2018-04-24T15:07:27.919Z,23.10
2018-04-24T15:09:55.383Z,23.00
2018-04-24T15:12:22.848Z,23.00
2018-04-24T15:14:50.425Z,23.10
2018-04-24T15:17:17.880Z,23.10
2018-04-24T15:19:45.340Z,23.00
2018-04-24T15:22:12.802Z,23.00
2018-04-24T15:24:40.373Z,23.00
2018-04-24T15:27:09.298Z,23.00
2018-04-24T15:29:36.767Z,23.00
2018-04-24T15:32:04.685Z,23.00
2018-04-24T15:34:32.136Z,23.00
2018-04-24T15:36:59.600Z,22.90
2018-04-24T15:39:27.066Z,22.80
2018-04-24T15:41:54.537Z,22.80
2018-04-24T15:44:22.101Z,22.70
2018-04-24T15:46:49.561Z,22.70
2018-04-24T15:49:17.124Z,22.60
2018-04-24T15:51:44.654Z,22.60
2018-04-24T15:54:12.118Z,22.60
2018-04-24T15:56:39.620Z,22.50
2018-04-24T15:59:07.444Z,22.40
2018-04-24T16:01:34.994Z,22.40
2018-04-24T16:04:02.728Z,22.30
2018-04-24T16:06:30.516Z,22.30
2018-04-24T16:08:57.996Z,22.20
2018-04-24T16:11:25.782Z,22.10
2018-04-24T16:13:53.490Z,22.10
2018-04-24T16:16:20.971Z,22.00
2018-04-24T16:18:48.442Z,22.00
2018-04-24T16:21:15.900Z,21.90
2018-04-24T16:23:43.858Z,21.80
2018-04-24T16:26:11.402Z,21.80
2018-04-24T16:28:38.854Z,21.80
2018-04-24T16:31:06.317Z,21.80
2018-04-24T16:33:33.803Z,21.70
2018-04-24T16:36:01.273Z,21.60
2018-04-24T16:38:28.842Z,21.60
2018-04-24T16:40:56.333Z,21.50
2018-04-24T16:43:24.191Z,21.50
2018-04-24T16:45:52.152Z,21.40
2018-04-24T16:48:19.643Z,21.40
2018-04-24T16:50:47.170Z,21.40
2018-04-24T16:53:14.632Z,21.40
2018-04-24T16:55:42.111Z,21.40
2018-04-24T16:58:09.710Z,21.30
2018-04-24T17:00:37.245Z,21.30
2018-04-24T17:03:04.702Z,21.30
2018-04-24T17:05:32.173Z,21.20
2018-04-24T17:08:00.055Z,21.20
2018-04-24T17:10:27.510Z,21.20
2018-04-24T17:12:55.393Z,21.20
2018-04-24T17:15:22.911Z,21.10
2018-04-24T17:17:50.372Z,21.10
2018-04-24T17:20:17.850Z,21.20
2018-04-24T17:22:45.734Z,21.10
2018-04-24T17:25:14.567Z,21.00
2018-04-24T17:27:42.171Z,21.00
2018-04-24T17:30:09.732Z,21.00
2018-04-24T17:32:37.212Z,20.90
2018-04-24T17:35:05.065Z,20.90
2018-04-24T17:37:32.537Z,20.90
2018-04-24T17:40:00.135Z,20.90
2018-04-24T17:42:27.645Z,20.90
2018-04-24T17:44:55.213Z,20.90
2018-04-24T17:47:22.676Z,20.80
2018-04-24T17:49:50.181Z,20.80
2018-04-24T17:52:17.668Z,20.70
2018-04-24T17:54:45.133Z,20.70
2018-04-24T17:57:12.650Z,20.70
2018-04-24T17:59:40.080Z,20.60
2018-04-24T18:02:07.533Z,20.60
2018-04-24T18:04:35.386Z,20.60
2018-04-24T18:07:02.904Z,20.50
2018-04-24T18:09:30.354Z,20.50
2018-04-24T18:11:57.846Z,20.40
2018-04-24T18:14:25.702Z,20.40
2018-04-24T18:16:53.179Z,20.40
2018-04-24T18:19:21.041Z,20.30
2018-04-24T18:21:48.518Z,20.30
2018-04-24T18:24:16.448Z,20.20
2018-04-24T18:26:44.025Z,20.20
2018-04-24T18:29:11.537Z,20.10
2018-04-24T18:31:39.993Z,20.10
2018-04-24T18:34:08.352Z,20.10
2018-04-24T18:36:35.827Z,20.10
2018-04-24T18:39:03.307Z,20.00
2018-04-24T18:41:31.246Z,20.00
2018-04-24T18:43:58.729Z,20.00
2018-04-24T18:46:26.212Z,20.00
2018-04-24T18:48:54.079Z,19.90
2018-04-24T18:51:22.019Z,19.90
2018-04-24T18:53:49.596Z,19.90
2018-04-24T18:56:17.286Z,19.80
2018-04-24T18:58:44.766Z,19.80
2018-04-24T19:01:12.225Z,19.80
2018-04-24T19:03:40.196Z,19.70
2018-04-24T19:06:07.994Z,19.70
2018-04-24T19:08:35.839Z,19.70
2018-04-24T19:11:04.421Z,19.70
2018-04-24T19:13:31.906Z,19.70
2018-04-24T19:15:59.397Z,19.60
2018-04-24T19:18:32.689Z,19.60
2018-04-24T19:21:00.524Z,19.60
2018-04-24T19:23:28.036Z,19.60
2018-04-24T19:25:55.525Z,19.50
2018-04-24T19:28:23.381Z,19.50
2018-04-24T19:30:51.543Z,19.50
2018-04-24T19:33:19.008Z,19.50
2018-04-24T19:35:46.470Z,19.40
2018-04-24T19:38:13.960Z,19.40
2018-04-24T19:40:47.516Z,19.30
2018-04-24T19:43:15.453Z,19.30
2018-04-24T19:45:42.975Z,19.30
2018-04-24T19:48:16.067Z,19.20
2018-04-24T19:50:43.609Z,19.20
2018-04-24T19:53:11.188Z,19.10
2018-04-24T19:55:38.749Z,19.10
2018-04-24T19:58:06.204Z,19.00
2018-04-24T20:00:33.796Z,19.00
2018-04-24T20:03:01.356Z,18.90
2018-04-24T20:05:28.823Z,18.90
2018-04-24T20:07:56.740Z,18.80
2018-04-24T20:10:24.218Z,18.80
2018-04-24T20:12:51.708Z,18.70
2018-04-24T20:15:19.270Z,18.70
2018-04-24T20:17:46.754Z,18.60
2018-04-24T20:20:14.357Z,18.60
2018-04-24T20:22:42.368Z,18.60
2018-04-24T20:25:09.835Z,18.50
2018-04-24T20:27:37.384Z,18.40
2018-04-24T20:30:04.849Z,18.40
2018-04-24T20:32:32.322Z,18.30
2018-04-24T20:34:59.773Z,18.30
2018-04-24T20:37:27.249Z,18.20
2018-04-24T20:39:54.722Z,18.10
2018-04-24T20:42:22.691Z,18.00
2018-04-24T20:44:50.165Z,18.10
2018-04-24T20:47:18.025Z,17.90
2018-04-24T20:49:45.610Z,18.00
2018-04-24T20:52:13.556Z,17.80
2018-04-24T20:54:41.066Z,17.80
2018-04-24T20:57:10.088Z,17.80
2018-04-24T20:59:37.595Z,17.70
2018-04-24T21:02:05.810Z,17.60
2018-04-24T21:04:33.331Z,17.70
2018-04-24T21:07:00.803Z,17.60
2018-04-24T21:09:28.686Z,17.50
2018-04-24T21:11:56.541Z,17.50
2018-04-24T21:14:24.505Z,17.40
2018-04-24T21:16:51.999Z,17.40
2018-04-24T21:19:19.485Z,17.30
2018-04-24T21:21:46.978Z,17.30
2018-04-24T21:24:14.452Z,17.20
2018-04-24T21:26:42.021Z,17.20
2018-04-24T21:31:43.501Z,17.20
2018-04-24T21:34:11.436Z,17.10
2018-04-24T21:36:38.934Z,17.10
2018-04-24T21:39:07.459Z,17.10
2018-04-24T21:41:34.984Z,17.10
2018-04-24T21:44:02.463Z,17.10
2018-04-24T21:46:29.999Z,17.00
2018-04-24T21:48:57.483Z,17.00
2018-04-24T21:51:25.364Z,17.00
2018-04-24T21:53:52.832Z,17.00
2018-04-24T21:56:20.931Z,17.00
2018-04-24T21:58:48.437Z,17.00
2018-04-24T22:01:15.924Z,16.90
2018-04-24T22:03:43.804Z,16.90
2018-04-24T22:06:11.278Z,16.90
2018-04-24T22:08:38.806Z,16.90
2018-04-24T22:11:06.269Z,16.90
2018-04-24T22:13:34.240Z,16.90
2018-04-24T22:16:01.671Z,16.90
2018-04-24T22:18:29.123Z,16.80
2018-04-24T22:20:56.601Z,16.80
2018-04-24T22:23:24.434Z,16.70
2018-04-24T22:25:51.906Z,16.70
2018-04-24T22:28:19.417Z,16.70
2018-04-24T22:30:46.900Z,16.70
2018-04-24T22:33:14.776Z,16.60
2018-04-24T22:35:42.688Z,16.60
2018-04-24T22:38:10.172Z,16.60
2018-04-24T22:40:37.713Z,16.50
2018-04-24T22:43:05.119Z,16.50
2018-04-24T22:45:33.080Z,16.50
2018-04-24T22:48:00.718Z,16.50
2018-04-24T22:50:28.198Z,16.40
2018-04-24T22:52:55.693Z,16.40
2018-04-24T22:55:23.160Z,16.40
2018-04-24T22:57:51.058Z,16.30
2018-04-24T23:00:18.595Z,16.30
2018-04-24T23:02:46.468Z,16.20
2018-04-24T23:05:14.418Z,16.20
2018-04-24T23:07:41.894Z,16.20
2018-04-24T23:10:09.283Z,16.10
2018-04-24T23:12:48.575Z,16.10
2018-04-24T23:15:27.792Z,16.10
2018-04-24T23:18:07.193Z,16.00
2018-04-24T23:20:34.192Z,16.00
2018-04-24T23:23:01.729Z,16.00
2018-04-24T23:25:29.194Z,15.90
2018-04-24T23:27:56.672Z,15.90
2018-04-24T23:30:24.163Z,15.80
2018-04-24T23:32:51.626Z,15.80
2018-04-24T23:35:19.164Z,15.80
2018-04-24T23:37:46.643Z,15.70
2018-04-24T23:40:14.578Z,15.70
2018-04-24T23:42:42.069Z,15.70
2018-04-24T23:45:09.540Z,15.60
2018-04-24T23:47:37.068Z,15.60
2018-04-24T23:50:04.547Z,15.60
2018-04-24T23:52:32.132Z,15.50
2018-04-24T23:55:00.027Z,15.40
2018-04-24T23:57:27.574Z,15.40
2018-04-24T23:59:55.490Z,15.30
